Time;durP1;ratioP1;P1;durP2;ratioP2;P2;SDS_P1;SDS_P2;PMS_P1;PMS_P2;Temp;Humidity;BMP_temperature;BMP_pressure;BME280_temperature;BME280_humidity;BME280_pressure;Samples;Min_cycle;Max_cycle;Signal;HPM_P1;HPM_P2
2022/12/16 00:01:12;;;;;;;22.15;9.77;;;;;;;-1.54;61.94;96077.00;5001718;28;20997;-73
2022/12/16 00:03:37;;;;;;;21.35;9.48;;;;;;;-1.64;62.71;96080.91;4997412;28;20196;-73
2022/12/16 00:06:04;;;;;;;22.67;9.60;;;;;;;-1.51;62.18;96086.00;5006732;28;20208;-73
2022/12/16 00:08:34;;;;;;;22.52;10.35;;;;;;;-1.37;61.67;96079.16;4972837;28;20359;-73
2022/12/16 00:11:00;;;;;;;20.38;9.45;;;;;;;-1.43;61.19;96082.50;5008584;27;20289;-73
2022/12/16 00:13:26;;;;;;;21.83;9.55;;;;;;;-1.54;61.45;96086.41;5026128;27;20238;-73
2022/12/16 00:15:52;;;;;;;21.48;9.68;;;;;;;-1.66;62.00;96085.41;4992876;27;20325;-73
2022/12/16 00:18:18;;;;;;;24.38;10.95;;;;;;;-1.62;62.64;96086.59;5011080;28;20325;-73
2022/12/16 00:20:50;;;;;;;24.50;11.07;;;;;;;-1.54;62.62;96094.09;4990125;28;20205;-73
2022/12/16 00:23:15;;;;;;;22.27;9.80;;;;;;;-1.72;62.10;96087.75;4998683;27;20200;-73
2022/12/16 00:25:45;;;;;;;23.95;10.25;;;;;;;-1.52;61.83;96099.78;5012518;28;20700;-73
2022/12/16 00:28:11;;;;;;;27.35;10.60;;;;;;;-1.49;61.56;96101.13;4964013;28;20665;-73
2022/12/16 00:30:36;;;;;;;25.83;11.70;;;;;;;-1.57;62.08;96107.22;5006416;28;20650;-72
2022/12/16 00:33:02;;;;;;;22.88;10.07;;;;;;;-1.54;62.18;96102.50;5029804;27;20234;-73
2022/12/16 00:35:29;;;;;;;25.15;10.57;;;;;;;-1.43;62.14;96101.16;5024656;27;20165;-73
2022/12/16 00:37:55;;;;;;;25.73;9.90;;;;;;;-1.40;61.46;96105.88;5006555;28;20264;-72
2022/12/16 00:40:20;;;;;;;23.73;11.10;;;;;;;-1.39;61.95;96104.91;4989112;28;20295;-73
2022/12/16 00:42:45;;;;;;;24.88;9.88;;;;;;;-1.36;61.67;96109.59;4972718;28;20225;-73
2022/12/16 00:45:10;;;;;;;21.30;9.88;;;;;;;-1.39;61.99;96110.00;5020948;27;20277;-73
2022/12/16 00:47:36;;;;;;;20.05;10.10;;;;;;;-1.36;61.43;96112.16;5004429;28;20741;-73
2022/12/16 00:50:01;;;;;;;21.83;10.38;;;;;;;-1.29;61.26;96124.94;4969741;28;20624;-73
2022/12/16 00:52:41;;;;;;;22.02;10.38;;;;;;;-1.29;61.04;96117.25;5004472;28;20223;-73
2022/12/16 00:55:07;;;;;;;23.70;9.80;;;;;;;-1.32;60.83;96130.41;4997702;28;20202;-73
2022/12/16 00:57:33;;;;;;;23.52;10.40;;;;;;;-1.33;61.12;96132.19;4986092;28;20096;-73
2022/12/16 00:59:58;;;;;;;20.77;9.65;;;;;;;-1.39;61.26;96124.53;4986430;28;20696;-73
2022/12/16 01:02:23;;;;;;;23.58;10.40;;;;;;;-1.39;61.76;96129.63;5004203;28;20287;-73
2022/12/16 01:04:49;;;;;;;23.85;10.40;;;;;;;-1.41;61.20;96127.25;4964700;28;20200;-74
2022/12/16 01:07:14;;;;;;;21.25;9.77;;;;;;;-1.40;60.90;96131.41;4992074;28;20200;-73
2022/12/16 01:09:39;;;;;;;25.23;9.43;;;;;;;-1.37;60.96;96141.22;5045001;28;20158;-73
2022/12/16 01:12:05;;;;;;;23.80;9.30;;;;;;;-1.36;60.46;96150.44;5026006;28;20421;-72
2022/12/16 01:14:30;;;;;;;21.92;10.55;;;;;;;-1.43;61.20;96138.66;5025463;28;20212;-73
2022/12/16 01:16:56;;;;;;;22.45;10.77;;;;;;;-1.48;61.07;96141.78;5009513;28;20192;-73
2022/12/16 01:19:21;;;;;;;23.92;9.90;;;;;;;-1.54;61.40;96145.91;5009326;28;20200;-72
2022/12/16 01:21:47;;;;;;;21.95;9.88;;;;;;;-1.56;61.32;96147.06;5044547;27;20242;-73
2022/12/16 01:24:12;;;;;;;22.60;9.70;;;;;;;-1.59;61.64;96140.59;5048042;27;20350;-73
2022/12/16 01:26:38;;;;;;;25.65;10.25;;;;;;;-1.64;61.72;96145.50;5017621;28;20364;-73
2022/12/16 01:29:04;;;;;;;22.25;10.40;;;;;;;-1.64;62.05;96142.16;4993531;28;20210;-72
2022/12/16 01:31:30;;;;;;;23.48;10.45;;;;;;;-1.65;62.05;96148.22;4993031;28;20276;-73
2022/12/16 01:33:55;;;;;;;24.88;10.15;;;;;;;-1.64;61.84;96147.25;4992536;28;20363;-73
2022/12/16 01:36:20;;;;;;;21.33;9.43;;;;;;;-1.65;61.65;96143.13;5009923;27;20249;-73
2022/12/16 01:38:46;;;;;;;21.15;9.32;;;;;;;-1.59;60.99;96150.03;4980305;28;20171;-73
2022/12/16 01:41:13;;;;;;;21.05;9.60;;;;;;;-1.50;61.30;96148.84;4986124;28;20739;-72
2022/12/16 01:43:42;;;;;;;22.75;8.52;;;;;;;-1.50;61.17;96156.50;5008733;28;20631;-72
2022/12/16 01:46:13;;;;;;;22.15;10.20;;;;;;;-1.64;61.01;96157.47;5000597;27;20231;-73
2022/12/16 01:49:01;;;;;;;19.08;9.23;;;;;;;-1.47;60.99;96158.69;5022161;28;20273;-72
2022/12/16 01:51:39;;;;;;;21.65;9.30;;;;;;;-1.49;60.87;96160.66;4992195;28;20284;-73
2022/12/16 01:54:09;;;;;;;21.70;9.02;;;;;;;-1.53;60.51;96167.09;4991918;28;20280;-73
2022/12/16 01:56:38;;;;;;;24.02;9.77;;;;;;;-1.70;60.96;96154.72;5007601;27;20212;-72
2022/12/16 01:59:04;;;;;;;22.40;8.32;;;;;;;-1.71;60.60;96158.22;4998344;28;20217;-73
2022/12/16 02:01:29;;;;;;;22.30;8.80;;;;;;;-1.75;61.19;96159.59;4985122;28;20612;-73
2022/12/16 02:03:56;;;;;;;20.98;9.63;;;;;;;-1.70;60.58;96164.91;5027368;28;20286;-73
2022/12/16 02:06:22;;;;;;;23.95;9.32;;;;;;;-1.74;60.59;96168.81;5008570;28;20238;-73
2022/12/16 02:08:52;;;;;;;23.08;9.98;;;;;;;-1.71;60.44;96165.09;4992249;28;20261;-73
2022/12/16 02:11:40;;;;;;;23.73;9.32;;;;;;;-1.72;60.52;96166.06;5009179;28;20212;-73
2022/12/16 02:14:36;;;;;;;18.33;8.68;;;;;;;-1.71;61.01;96165.09;4992506;28;20375;-73
2022/12/16 02:17:33;;;;;;;20.42;9.48;;;;;;;-1.69;60.77;96160.59;4996073;27;20189;-73
2022/12/16 02:20:19;;;;;;;19.88;8.27;;;;;;;-1.88;60.94;96162.88;5033924;27;20235;-72
2022/12/16 02:23:39;;;;;;;19.10;8.68;;;;;;;-1.78;60.51;96166.81;5007329;28;20227;-73
2022/12/16 02:26:07;;;;;;;18.63;8.65;;;;;;;-1.86;60.78;96167.78;4923398;28;20573;-73
2022/12/16 02:28:39;;;;;;;20.40;9.13;;;;;;;-1.90;60.33;96166.59;5001473;28;20626;-72
2022/12/16 02:31:04;;;;;;;18.13;8.63;;;;;;;-1.95;60.03;96162.06;5025696;27;20240;-72
2022/12/16 02:33:49;;;;;;;21.65;8.32;;;;;;;-1.86;59.63;96160.13;5027967;28;20195;-73
2022/12/16 02:36:45;;;;;;;18.83;7.17;;;;;;;-1.77;59.70;96163.31;5009386;28;20582;-72
2022/12/16 02:39:18;;;;;;;15.80;7.68;;;;;;;-2.02;60.00;96168.09;5008228;28;20269;-72
2022/12/16 02:41:50;;;;;;;19.27;7.93;;;;;;;-1.97;59.90;96163.22;5025901;27;20924;-72
2022/12/16 02:44:17;;;;;;;18.60;7.88;;;;;;;-2.05;60.45;96171.84;5021567;28;20220;-73
2022/12/16 02:46:51;;;;;;;20.50;8.98;;;;;;;-2.07;60.19;96166.91;4982528;28;20184;-73
2022/12/16 02:49:17;;;;;;;21.05;9.25;;;;;;;-2.19;60.12;96165.88;4976132;28;20278;-72
2022/12/16 02:51:42;;;;;;;22.55;9.50;;;;;;;-2.26;60.95;96170.16;5024942;28;20288;-73
2022/12/16 02:54:08;;;;;;;26.55;12.10;;;;;;;-2.19;60.01;96170.97;4976111;28;20645;-72
2022/12/16 02:56:47;;;;;;;27.48;13.98;;;;;;;-2.06;59.95;96165.16;5008322;28;20197;-73
2022/12/16 02:59:17;;;;;;;31.35;13.32;;;;;;;-2.15;59.34;96168.84;5008762;28;20255;-72
2022/12/16 03:02:07;;;;;;;23.98;10.20;;;;;;;-1.99;59.35;96170.28;4992020;28;20233;-72
2022/12/16 03:04:42;;;;;;;22.42;10.27;;;;;;;-2.14;59.76;96176.31;5008739;28;20193;-73
2022/12/16 03:07:10;;;;;;;16.70;8.07;;;;;;;-2.15;59.55;96176.50;5008400;28;20201;-72
2022/12/16 03:09:37;;;;;;;17.40;7.85;;;;;;;-2.12;59.81;96173.56;4992233;28;20582;-72
2022/12/16 03:12:06;;;;;;;18.70;7.88;;;;;;;-2.16;59.44;96170.59;5003381;28;20184;-72
2022/12/16 03:14:33;;;;;;;15.60;7.35;;;;;;;-2.25;59.62;96171.72;5008967;28;20212;-72
2022/12/16 03:16:59;;;;;;;19.48;7.55;;;;;;;-2.29;59.29;96168.75;4975653;28;20696;-72
2022/12/16 03:19:25;;;;;;;18.15;7.90;;;;;;;-2.37;59.71;96173.22;4991694;28;20185;-72
2022/12/16 03:21:54;;;;;;;18.90;7.93;;;;;;;-2.36;59.69;96170.50;5008243;28;20212;-72
2022/12/16 03:24:20;;;;;;;19.30;7.85;;;;;;;-2.38;60.17;96174.19;4990150;28;20270;-72
2022/12/16 03:27:17;;;;;;;19.65;8.40;;;;;;;-2.33;59.27;96179.50;4991567;28;20316;-72
2022/12/16 03:30:03;;;;;;;16.08;7.78;;;;;;;-2.32;59.57;96170.91;5025931;28;20189;-72
2022/12/16 03:32:32;;;;;;;18.17;7.65;;;;;;;-2.44;58.95;96185.94;5007144;28;20266;-72
2022/12/16 03:35:01;;;;;;;17.92;7.15;;;;;;;-2.41;58.84;96184.78;4987698;28;20182;-72
2022/12/16 03:37:30;;;;;;;18.30;7.65;;;;;;;-2.39;58.90;96196.34;5004618;28;20350;-72
2022/12/16 03:39:58;;;;;;;15.93;6.40;;;;;;;-2.48;58.52;96190.59;4992558;28;20206;-72
2022/12/16 03:42:23;;;;;;;18.00;8.02;;;;;;;-2.58;57.97;96192.69;4982254;28;20727;-72
2022/12/16 03:44:49;;;;;;;13.75;6.38;;;;;;;-2.65;58.52;96191.88;4985705;28;20353;-72
2022/12/16 03:47:14;;;;;;;14.60;6.45;;;;;;;-2.68;57.99;96204.97;5005465;28;20705;-72
2022/12/16 03:49:40;;;;;;;16.00;5.63;;;;;;;-2.68;58.22;96192.22;5008017;28;20163;-72
2022/12/16 03:52:05;;;;;;;17.83;6.80;;;;;;;-2.68;58.43;96198.09;4990992;28;20205;-72
2022/12/16 03:54:30;;;;;;;17.15;6.53;;;;;;;-2.70;58.76;96212.00;5026467;28;20334;-72
2022/12/16 03:56:56;;;;;;;13.23;5.60;;;;;;;-2.68;58.84;96212.63;5006911;28;20367;-72
2022/12/16 03:59:21;;;;;;;18.88;7.47;;;;;;;-2.70;58.54;96217.09;4991360;28;20356;-72
2022/12/16 04:01:47;;;;;;;17.15;5.97;;;;;;;-2.73;58.90;96214.91;5007606;28;20774;-72
2022/12/16 04:04:12;;;;;;;14.02;5.78;;;;;;;-2.71;59.28;96215.53;5007582;28;20175;-72
2022/12/16 04:06:37;;;;;;;17.10;6.82;;;;;;;-2.72;59.51;96222.38;4990594;28;20380;-72
2022/12/16 04:09:03;;;;;;;15.90;6.63;;;;;;;-2.72;59.38;96222.38;5024304;28;20262;-72
2022/12/16 04:25:27;;;;;;;12.75;5.68;;;;;;;-2.82;57.81;96248.16;4994640;28;20247;-72
2022/12/16 04:27:52;;;;;;;15.05;5.55;;;;;;;-2.98;58.05;96245.88;5006160;28;20182;-72
2022/12/16 04:30:19;;;;;;;14.45;5.55;;;;;;;-3.01;58.19;96249.56;5025340;28;20235;-72
